sensor_id;sensor_type;location;lat;lon;timestamp;P1;durP1;ratioP1;P2;durP2;ratioP2
13345;SDS011;6742;48.036;15.780;2023-05-31T00:01:38;2.20;;;2.00;;
13345;SDS011;6742;48.036;15.780;2023-05-31T00:04:05;3.45;;;2.53;;
13345;SDS011;6742;48.036;15.780;2023-05-31T00:06:36;4.88;;;2.25;;
13345;SDS011;6742;48.036;15.780;2023-05-31T00:09:03;4.00;;;2.38;;
13345;SDS011;6742;48.036;15.780;2023-05-31T00:11:30;3.22;;;2.30;;
13345;SDS011;6742;48.036;15.780;2023-05-31T00:13:57;3.30;;;2.38;;
13345;SDS011;6742;48.036;15.780;2023-05-31T00:16:24;4.00;;;2.47;;
13345;SDS011;6742;48.036;15.780;2023-05-31T00:18:51;6.15;;;2.55;;
13345;SDS011;6742;48.036;15.780;2023-05-31T00:21:17;3.25;;;2.28;;
13345;SDS011;6742;48.036;15.780;2023-05-31T00:23:46;4.93;;;2.50;;
13345;SDS011;6742;48.036;15.780;2023-05-31T00:26:14;3.35;;;2.47;;
13345;SDS011;6742;48.036;15.780;2023-05-31T00:28:41;3.97;;;2.35;;
13345;SDS011;6742;48.036;15.780;2023-05-31T00:31:08;3.35;;;2.30;;
13345;SDS011;6742;48.036;15.780;2023-05-31T00:33:35;6.13;;;2.67;;
13345;SDS011;6742;48.036;15.780;2023-05-31T00:36:02;2.45;;;2.10;;
13345;SDS011;6742;48.036;15.780;2023-05-31T00:38:29;3.47;;;2.47;;
13345;SDS011;6742;48.036;15.780;2023-05-31T00:40:57;3.17;;;2.15;;
13345;SDS011;6742;48.036;15.780;2023-05-31T00:43:24;3.70;;;2.25;;
13345;SDS011;6742;48.036;15.780;2023-05-31T00:45:51;3.40;;;2.30;;
13345;SDS011;6742;48.036;15.780;2023-05-31T00:48:18;3.53;;;2.30;;
13345;SDS011;6742;48.036;15.780;2023-05-31T00:50:45;4.07;;;2.20;;
13345;SDS011;6742;48.036;15.780;2023-05-31T00:53:14;2.97;;;2.42;;
13345;SDS011;6742;48.036;15.780;2023-05-31T00:55:41;2.33;;;2.13;;
13345;SDS011;6742;48.036;15.780;2023-05-31T00:58:09;2.83;;;2.22;;
13345;SDS011;6742;48.036;15.780;2023-05-31T01:00:37;3.38;;;2.38;;
13345;SDS011;6742;48.036;15.780;2023-05-31T01:03:04;4.25;;;2.45;;
13345;SDS011;6742;48.036;15.780;2023-05-31T01:05:34;4.68;;;2.53;;
13345;SDS011;6742;48.036;15.780;2023-05-31T01:08:01;2.92;;;2.00;;
13345;SDS011;6742;48.036;15.780;2023-05-31T01:10:28;2.65;;;2.17;;
13345;SDS011;6742;48.036;15.780;2023-05-31T01:12:59;3.78;;;2.47;;
13345;SDS011;6742;48.036;15.780;2023-05-31T01:15:35;3.70;;;2.40;;
13345;SDS011;6742;48.036;15.780;2023-05-31T01:18:13;3.25;;;2.28;;
13345;SDS011;6742;48.036;15.780;2023-05-31T01:20:50;3.05;;;2.20;;
13345;SDS011;6742;48.036;15.780;2023-05-31T01:23:24;4.00;;;2.20;;
13345;SDS011;6742;48.036;15.780;2023-05-31T01:26:20;3.22;;;2.00;;
13345;SDS011;6742;48.036;15.780;2023-05-31T01:28:59;4.10;;;2.45;;
13345;SDS011;6742;48.036;15.780;2023-05-31T01:31:30;3.55;;;2.40;;
13345;SDS011;6742;48.036;15.780;2023-05-31T01:34:00;2.83;;;2.25;;
13345;SDS011;6742;48.036;15.780;2023-05-31T01:36:27;4.07;;;2.53;;
13345;SDS011;6742;48.036;15.780;2023-05-31T01:38:54;4.90;;;2.35;;
13345;SDS011;6742;48.036;15.780;2023-05-31T01:41:22;2.65;;;2.25;;
13345;SDS011;6742;48.036;15.780;2023-05-31T01:43:50;3.30;;;2.38;;
13345;SDS011;6742;48.036;15.780;2023-05-31T01:46:18;3.40;;;2.33;;
13345;SDS011;6742;48.036;15.780;2023-05-31T01:48:46;3.47;;;2.30;;
13345;SDS011;6742;48.036;15.780;2023-05-31T01:51:15;4.43;;;2.35;;
13345;SDS011;6742;48.036;15.780;2023-05-31T01:53:42;4.68;;;2.25;;
13345;SDS011;6742;48.036;15.780;2023-05-31T01:56:09;3.42;;;2.20;;
13345;SDS011;6742;48.036;15.780;2023-05-31T01:58:40;2.65;;;2.20;;
13345;SDS011;6742;48.036;15.780;2023-05-31T02:01:16;2.20;;;2.00;;
13345;SDS011;6742;48.036;15.780;2023-05-31T02:03:44;3.13;;;2.10;;
13345;SDS011;6742;48.036;15.780;2023-05-31T02:06:11;3.13;;;2.22;;
13345;SDS011;6742;48.036;15.780;2023-05-31T02:08:39;5.60;;;2.60;;
13345;SDS011;6742;48.036;15.780;2023-05-31T02:11:06;2.80;;;2.35;;
13345;SDS011;6742;48.036;15.780;2023-05-31T02:13:33;2.72;;;2.15;;
13345;SDS011;6742;48.036;15.780;2023-05-31T02:16:01;3.67;;;2.22;;
13345;SDS011;6742;48.036;15.780;2023-05-31T02:18:29;3.38;;;2.00;;
13345;SDS011;6742;48.036;15.780;2023-05-31T02:20:57;4.13;;;2.33;;
13345;SDS011;6742;48.036;15.780;2023-05-31T02:23:24;3.85;;;2.45;;
13345;SDS011;6742;48.036;15.780;2023-05-31T02:25:51;5.43;;;2.80;;
13345;SDS011;6742;48.036;15.780;2023-05-31T02:28:20;3.03;;;2.40;;
13345;SDS011;6742;48.036;15.780;2023-05-31T02:30:53;2.97;;;2.30;;
13345;SDS011;6742;48.036;15.780;2023-05-31T02:33:23;3.40;;;2.20;;
13345;SDS011;6742;48.036;15.780;2023-05-31T02:35:50;2.13;;;1.92;;
13345;SDS011;6742;48.036;15.780;2023-05-31T02:38:17;6.10;;;2.63;;
13345;SDS011;6742;48.036;15.780;2023-05-31T02:40:45;2.67;;;2.25;;
13345;SDS011;6742;48.036;15.780;2023-05-31T02:43:12;3.05;;;2.35;;
13345;SDS011;6742;48.036;15.780;2023-05-31T02:45:39;2.58;;;2.30;;
13345;SDS011;6742;48.036;15.780;2023-05-31T02:48:06;3.22;;;2.42;;
13345;SDS011;6742;48.036;15.780;2023-05-31T02:50:34;3.13;;;2.15;;
13345;SDS011;6742;48.036;15.780;2023-05-31T02:53:01;3.13;;;2.38;;
13345;SDS011;6742;48.036;15.780;2023-05-31T02:55:30;5.10;;;2.53;;
13345;SDS011;6742;48.036;15.780;2023-05-31T02:57:57;3.92;;;2.03;;
13345;SDS011;6742;48.036;15.780;2023-05-31T03:00:24;3.35;;;2.50;;
13345;SDS011;6742;48.036;15.780;2023-05-31T03:02:51;4.13;;;2.58;;
13345;SDS011;6742;48.036;15.780;2023-05-31T03:05:18;4.82;;;2.10;;
13345;SDS011;6742;48.036;15.780;2023-05-31T03:07:47;2.40;;;2.20;;
13345;SDS011;6742;48.036;15.780;2023-05-31T03:10:14;3.05;;;2.30;;
13345;SDS011;6742;48.036;15.780;2023-05-31T03:12:41;4.70;;;2.60;;
13345;SDS011;6742;48.036;15.780;2023-05-31T03:15:08;3.47;;;2.47;;
13345;SDS011;6742;48.036;15.780;2023-05-31T03:17:35;2.70;;;2.38;;
13345;SDS011;6742;48.036;15.780;2023-05-31T03:20:03;4.55;;;2.50;;
13345;SDS011;6742;48.036;15.780;2023-05-31T03:22:33;2.33;;;2.05;;
13345;SDS011;6742;48.036;15.780;2023-05-31T03:25:02;3.88;;;2.50;;
13345;SDS011;6742;48.036;15.780;2023-05-31T03:27:30;5.32;;;2.50;;
13345;SDS011;6742;48.036;15.780;2023-05-31T03:29:58;2.72;;;2.20;;
13345;SDS011;6742;48.036;15.780;2023-05-31T03:32:25;3.70;;;2.35;;
13345;SDS011;6742;48.036;15.780;2023-05-31T03:34:52;3.28;;;2.28;;
13345;SDS011;6742;48.036;15.780;2023-05-31T03:37:19;4.63;;;2.53;;
13345;SDS011;6742;48.036;15.780;2023-05-31T03:39:46;2.65;;;2.40;;
13345;SDS011;6742;48.036;15.780;2023-05-31T03:42:14;4.95;;;2.65;;
13345;SDS011;6742;48.036;15.780;2023-05-31T03:44:41;3.28;;;2.25;;
13345;SDS011;6742;48.036;15.780;2023-05-31T03:47:08;2.10;;;1.90;;
13345;SDS011;6742;48.036;15.780;2023-05-31T03:49:36;2.20;;;1.80;;
13345;SDS011;6742;48.036;15.780;2023-05-31T03:52:04;4.03;;;2.30;;
13345;SDS011;6742;48.036;15.780;2023-05-31T03:54:34;4.80;;;2.28;;
13345;SDS011;6742;48.036;15.780;2023-05-31T03:57:01;3.78;;;2.20;;
13345;SDS011;6742;48.036;15.780;2023-05-31T03:59:30;3.47;;;2.42;;
13345;SDS011;6742;48.036;15.780;2023-05-31T04:01:57;5.40;;;2.55;;
13345;SDS011;6742;48.036;15.780;2023-05-31T04:04:26;5.43;;;2.33;;
13345;SDS011;6742;48.036;15.780;2023-05-31T04:06:53;3.85;;;2.25;;
13345;SDS011;6742;48.036;15.780;2023-05-31T04:09:20;2.67;;;2.30;;
13345;SDS011;6742;48.036;15.780;2023-05-31T04:11:48;3.40;;;2.42;;
13345;SDS011;6742;48.036;15.780;2023-05-31T04:14:15;3.75;;;2.45;;
13345;SDS011;6742;48.036;15.780;2023-05-31T04:16:44;4.55;;;2.60;;
13345;SDS011;6742;48.036;15.780;2023-05-31T04:19:11;5.50;;;2.42;;
13345;SDS011;6742;48.036;15.780;2023-05-31T04:21:37;4.90;;;2.60;;
13345;SDS011;6742;48.036;15.780;2023-05-31T04:24:04;5.68;;;2.47;;
13345;SDS011;6742;48.036;15.780;2023-05-31T04:26:32;3.08;;;2.67;;
13345;SDS011;6742;48.036;15.780;2023-05-31T04:28:59;4.05;;;2.28;;
13345;SDS011;6742;48.036;15.780;2023-05-31T04:31:26;8.93;;;2.58;;
13345;SDS011;6742;48.036;15.780;2023-05-31T04:33:55;5.90;;;2.50;;
13345;SDS011;6742;48.036;15.780;2023-05-31T04:36:25;2.85;;;2.28;;
13345;SDS011;6742;48.036;15.780;2023-05-31T04:38:53;4.43;;;2.65;;
13345;SDS011;6742;48.036;15.780;2023-05-31T04:41:21;5.30;;;2.95;;
13345;SDS011;6742;48.036;15.780;2023-05-31T04:43:51;3.95;;;2.40;;
13345;SDS011;6742;48.036;15.780;2023-05-31T04:46:18;4.75;;;2.55;;
13345;SDS011;6742;48.036;15.780;2023-05-31T04:48:46;6.97;;;3.00;;
13345;SDS011;6742;48.036;15.780;2023-05-31T04:51:16;6.65;;;3.53;;
13345;SDS011;6742;48.036;15.780;2023-05-31T04:53:43;3.13;;;2.28;;
13345;SDS011;6742;48.036;15.780;2023-05-31T04:56:10;4.20;;;2.47;;
13345;SDS011;6742;48.036;15.780;2023-05-31T04:58:37;3.13;;;2.35;;
13345;SDS011;6742;48.036;15.780;2023-05-31T05:01:04;6.18;;;2.70;;
13345;SDS011;6742;48.036;15.780;2023-05-31T05:03:32;5.10;;;2.60;;
13345;SDS011;6742;48.036;15.780;2023-05-31T05:06:00;4.55;;;2.67;;
13345;SDS011;6742;48.036;15.780;2023-05-31T05:08:38;5.13;;;2.83;;
13345;SDS011;6742;48.036;15.780;2023-05-31T05:11:05;3.67;;;2.70;;
13345;SDS011;6742;48.036;15.780;2023-05-31T05:13:32;7.30;;;3.17;;
13345;SDS011;6742;48.036;15.780;2023-05-31T05:15:59;5.32;;;2.53;;
13345;SDS011;6742;48.036;15.780;2023-05-31T05:18:27;4.20;;;2.33;;
13345;SDS011;6742;48.036;15.780;2023-05-31T05:20:55;4.75;;;2.45;;
13345;SDS011;6742;48.036;15.780;2023-05-31T05:23:22;3.17;;;2.30;;
13345;SDS011;6742;48.036;15.780;2023-05-31T05:25:51;3.47;;;2.25;;
13345;SDS011;6742;48.036;15.780;2023-05-31T05:28:18;5.85;;;3.30;;
13345;SDS011;6742;48.036;15.780;2023-05-31T05:30:44;3.20;;;2.42;;
13345;SDS011;6742;48.036;15.780;2023-05-31T05:33:11;2.67;;;2.15;;
13345;SDS011;6742;48.036;15.780;2023-05-31T05:35:38;3.92;;;2.50;;
13345;SDS011;6742;48.036;15.780;2023-05-31T05:38:05;6.38;;;2.45;;
13345;SDS011;6742;48.036;15.780;2023-05-31T05:40:32;3.55;;;2.70;;
13345;SDS011;6742;48.036;15.780;2023-05-31T05:43:01;4.00;;;2.47;;
13345;SDS011;6742;48.036;15.780;2023-05-31T05:45:27;3.67;;;2.45;;
13345;SDS011;6742;48.036;15.780;2023-05-31T05:47:54;3.85;;;3.00;;
13345;SDS011;6742;48.036;15.780;2023-05-31T05:50:22;4.30;;;3.00;;
13345;SDS011;6742;48.036;15.780;2023-05-31T05:52:49;3.60;;;2.55;;
13345;SDS011;6742;48.036;15.780;2023-05-31T05:55:16;3.38;;;2.60;;
13345;SDS011;6742;48.036;15.780;2023-05-31T05:57:44;3.25;;;2.58;;
13345;SDS011;6742;48.036;15.780;2023-05-31T06:00:13;5.65;;;2.80;;
13345;SDS011;6742;48.036;15.780;2023-05-31T06:02:40;3.22;;;2.47;;
13345;SDS011;6742;48.036;15.780;2023-05-31T06:05:08;3.38;;;2.47;;
13345;SDS011;6742;48.036;15.780;2023-05-31T06:07:35;5.03;;;2.60;;
13345;SDS011;6742;48.036;15.780;2023-05-31T06:10:02;5.82;;;2.75;;
13345;SDS011;6742;48.036;15.780;2023-05-31T06:12:31;5.05;;;2.78;;
13345;SDS011;6742;48.036;15.780;2023-05-31T06:14:59;5.65;;;2.78;;
13345;SDS011;6742;48.036;15.780;2023-05-31T06:17:27;4.15;;;2.80;;
13345;SDS011;6742;48.036;15.780;2023-05-31T06:19:54;4.30;;;2.72;;
13345;SDS011;6742;48.036;15.780;2023-05-31T06:22:21;6.90;;;2.67;;
13345;SDS011;6742;48.036;15.780;2023-05-31T06:24:48;4.03;;;2.47;;
13345;SDS011;6742;48.036;15.780;2023-05-31T06:27:15;6.10;;;2.63;;
13345;SDS011;6742;48.036;15.780;2023-05-31T06:29:42;6.20;;;2.97;;
13345;SDS011;6742;48.036;15.780;2023-05-31T06:32:09;3.60;;;2.25;;
13345;SDS011;6742;48.036;15.780;2023-05-31T06:34:38;4.30;;;2.42;;
13345;SDS011;6742;48.036;15.780;2023-05-31T06:37:05;6.00;;;2.72;;
13345;SDS011;6742;48.036;15.780;2023-05-31T06:39:34;4.90;;;2.70;;
13345;SDS011;6742;48.036;15.780;2023-05-31T06:42:01;4.45;;;2.60;;
13345;SDS011;6742;48.036;15.780;2023-05-31T06:44:28;4.70;;;2.22;;
13345;SDS011;6742;48.036;15.780;2023-05-31T06:46:55;4.55;;;2.58;;
13345;SDS011;6742;48.036;15.780;2023-05-31T06:49:22;5.72;;;2.65;;
13345;SDS011;6742;48.036;15.780;2023-05-31T06:51:50;5.93;;;2.75;;
13345;SDS011;6742;48.036;15.780;2023-05-31T06:54:17;4.60;;;2.55;;
13345;SDS011;6742;48.036;15.780;2023-05-31T06:56:44;4.18;;;2.42;;
13345;SDS011;6742;48.036;15.780;2023-05-31T06:59:11;4.03;;;2.60;;
13345;SDS011;6742;48.036;15.780;2023-05-31T07:01:38;3.67;;;2.40;;
13345;SDS011;6742;48.036;15.780;2023-05-31T07:04:05;3.30;;;2.13;;
13345;SDS011;6742;48.036;15.780;2023-05-31T07:06:32;5.43;;;2.63;;
13345;SDS011;6742;48.036;15.780;2023-05-31T07:09:02;3.95;;;2.22;;
13345;SDS011;6742;48.036;15.780;2023-05-31T07:11:30;3.72;;;2.45;;
13345;SDS011;6742;48.036;15.780;2023-05-31T07:13:57;2.67;;;2.20;;
13345;SDS011;6742;48.036;15.780;2023-05-31T07:16:26;12.05;;;2.40;;
13345;SDS011;6742;48.036;15.780;2023-05-31T07:18:53;4.50;;;2.42;;
13345;SDS011;6742;48.036;15.780;2023-05-31T07:21:21;4.53;;;2.75;;
13345;SDS011;6742;48.036;15.780;2023-05-31T07:23:49;4.82;;;2.17;;
13345;SDS011;6742;48.036;15.780;2023-05-31T07:26:17;3.38;;;2.25;;
13345;SDS011;6742;48.036;15.780;2023-05-31T07:28:44;5.38;;;2.60;;
13345;SDS011;6742;48.036;15.780;2023-05-31T07:31:11;6.15;;;2.60;;
13345;SDS011;6742;48.036;15.780;2023-05-31T07:33:40;3.47;;;2.30;;
13345;SDS011;6742;48.036;15.780;2023-05-31T07:36:07;4.95;;;2.40;;
13345;SDS011;6742;48.036;15.780;2023-05-31T07:38:34;4.45;;;2.30;;
13345;SDS011;6742;48.036;15.780;2023-05-31T07:41:01;3.75;;;2.20;;
13345;SDS011;6742;48.036;15.780;2023-05-31T07:43:30;4.35;;;2.35;;
13345;SDS011;6742;48.036;15.780;2023-05-31T07:45:57;4.43;;;2.20;;
13345;SDS011;6742;48.036;15.780;2023-05-31T07:48:24;6.65;;;2.42;;
13345;SDS011;6742;48.036;15.780;2023-05-31T07:50:53;3.72;;;2.10;;
13345;SDS011;6742;48.036;15.780;2023-05-31T07:53:20;3.72;;;2.10;;
13345;SDS011;6742;48.036;15.780;2023-05-31T07:55:47;6.55;;;2.42;;
13345;SDS011;6742;48.036;15.780;2023-05-31T07:58:14;4.93;;;2.50;;
13345;SDS011;6742;48.036;15.780;2023-05-31T08:00:42;4.07;;;2.35;;
13345;SDS011;6742;48.036;15.780;2023-05-31T08:03:09;4.30;;;2.42;;
13345;SDS011;6742;48.036;15.780;2023-05-31T08:05:36;4.88;;;2.25;;
13345;SDS011;6742;48.036;15.780;2023-05-31T08:08:03;5.13;;;2.25;;
13345;SDS011;6742;48.036;15.780;2023-05-31T08:10:31;4.53;;;2.45;;
13345;SDS011;6742;48.036;15.780;2023-05-31T08:12:58;4.28;;;2.42;;
13345;SDS011;6742;48.036;15.780;2023-05-31T08:15:24;2.58;;;2.22;;
13345;SDS011;6742;48.036;15.780;2023-05-31T08:17:53;5.47;;;2.20;;
13345;SDS011;6742;48.036;15.780;2023-05-31T08:20:20;3.33;;;2.20;;
13345;SDS011;6742;48.036;15.780;2023-05-31T08:22:47;6.90;;;2.50;;
13345;SDS011;6742;48.036;15.780;2023-05-31T08:25:14;5.60;;;2.50;;
13345;SDS011;6742;48.036;15.780;2023-05-31T08:27:42;4.50;;;2.60;;
13345;SDS011;6742;48.036;15.780;2023-05-31T08:30:09;5.53;;;2.80;;
13345;SDS011;6742;48.036;15.780;2023-05-31T08:32:37;4.78;;;2.60;;
13345;SDS011;6742;48.036;15.780;2023-05-31T08:35:07;3.88;;;2.22;;
13345;SDS011;6742;48.036;15.780;2023-05-31T08:37:35;5.03;;;2.53;;
13345;SDS011;6742;48.036;15.780;2023-05-31T08:40:02;3.78;;;2.33;;
13345;SDS011;6742;48.036;15.780;2023-05-31T08:42:32;4.65;;;2.53;;
13345;SDS011;6742;48.036;15.780;2023-05-31T08:45:06;4.88;;;2.72;;
13345;SDS011;6742;48.036;15.780;2023-05-31T08:47:36;4.88;;;2.80;;
13345;SDS011;6742;48.036;15.780;2023-05-31T08:50:07;3.75;;;2.35;;
13345;SDS011;6742;48.036;15.780;2023-05-31T08:52:35;6.15;;;2.53;;
13345;SDS011;6742;48.036;15.780;2023-05-31T08:55:02;5.93;;;2.83;;
13345;SDS011;6742;48.036;15.780;2023-05-31T08:57:30;3.80;;;2.50;;
13345;SDS011;6742;48.036;15.780;2023-05-31T08:59:59;4.63;;;2.40;;
13345;SDS011;6742;48.036;15.780;2023-05-31T09:02:33;5.45;;;2.63;;
13345;SDS011;6742;48.036;15.780;2023-05-31T09:05:00;7.25;;;2.53;;
13345;SDS011;6742;48.036;15.780;2023-05-31T09:07:30;5.63;;;2.65;;
13345;SDS011;6742;48.036;15.780;2023-05-31T09:09:57;4.82;;;2.67;;
13345;SDS011;6742;48.036;15.780;2023-05-31T09:12:24;4.30;;;2.75;;
13345;SDS011;6742;48.036;15.780;2023-05-31T09:14:51;3.50;;;2.70;;
13345;SDS011;6742;48.036;15.780;2023-05-31T09:17:18;6.07;;;2.58;;
13345;SDS011;6742;48.036;15.780;2023-05-31T09:19:48;5.78;;;2.70;;
13345;SDS011;6742;48.036;15.780;2023-05-31T09:22:16;4.50;;;2.63;;
13345;SDS011;6742;48.036;15.780;2023-05-31T09:24:50;6.30;;;2.47;;
13345;SDS011;6742;48.036;15.780;2023-05-31T09:27:17;4.25;;;2.47;;
13345;SDS011;6742;48.036;15.780;2023-05-31T09:29:44;4.35;;;2.58;;
13345;SDS011;6742;48.036;15.780;2023-05-31T09:32:17;8.30;;;2.92;;
13345;SDS011;6742;48.036;15.780;2023-05-31T09:34:44;4.22;;;2.67;;
13345;SDS011;6742;48.036;15.780;2023-05-31T09:37:20;5.60;;;2.90;;
13345;SDS011;6742;48.036;15.780;2023-05-31T09:39:56;4.95;;;2.47;;
13345;SDS011;6742;48.036;15.780;2023-05-31T09:42:24;6.63;;;3.35;;
13345;SDS011;6742;48.036;15.780;2023-05-31T09:44:53;5.47;;;2.75;;
13345;SDS011;6742;48.036;15.780;2023-05-31T09:47:23;3.85;;;2.53;;
13345;SDS011;6742;48.036;15.780;2023-05-31T09:49:52;3.95;;;2.80;;
13345;SDS011;6742;48.036;15.780;2023-05-31T09:52:21;5.40;;;2.85;;
13345;SDS011;6742;48.036;15.780;2023-05-31T09:54:52;6.22;;;2.90;;
13345;SDS011;6742;48.036;15.780;2023-05-31T09:57:29;4.40;;;2.60;;
13345;SDS011;6742;48.036;15.780;2023-05-31T09:59:56;5.25;;;3.17;;
13345;SDS011;6742;48.036;15.780;2023-05-31T10:02:25;5.18;;;2.60;;
13345;SDS011;6742;48.036;15.780;2023-05-31T10:04:53;3.92;;;2.90;;
13345;SDS011;6742;48.036;15.780;2023-05-31T10:07:22;2.92;;;2.60;;
13345;SDS011;6742;48.036;15.780;2023-05-31T10:09:50;3.17;;;2.60;;
13345;SDS011;6742;48.036;15.780;2023-05-31T10:12:18;7.05;;;2.95;;
13345;SDS011;6742;48.036;15.780;2023-05-31T10:14:56;4.30;;;2.70;;
13345;SDS011;6742;48.036;15.780;2023-05-31T10:17:28;7.15;;;3.00;;
13345;SDS011;6742;48.036;15.780;2023-05-31T10:20:00;5.43;;;2.80;;
13345;SDS011;6742;48.036;15.780;2023-05-31T10:22:31;5.43;;;2.85;;
13345;SDS011;6742;48.036;15.780;2023-05-31T10:25:03;6.20;;;3.03;;
13345;SDS011;6742;48.036;15.780;2023-05-31T10:27:36;4.00;;;2.70;;
13345;SDS011;6742;48.036;15.780;2023-05-31T10:30:05;6.78;;;3.08;;
13345;SDS011;6742;48.036;15.780;2023-05-31T10:32:36;4.90;;;2.95;;
13345;SDS011;6742;48.036;15.780;2023-05-31T10:35:10;5.93;;;3.00;;
13345;SDS011;6742;48.036;15.780;2023-05-31T10:37:37;4.72;;;2.90;;
13345;SDS011;6742;48.036;15.780;2023-05-31T10:40:09;5.13;;;3.30;;
13345;SDS011;6742;48.036;15.780;2023-05-31T10:42:44;5.28;;;2.92;;
13345;SDS011;6742;48.036;15.780;2023-05-31T10:45:20;5.18;;;3.10;;
13345;SDS011;6742;48.036;15.780;2023-05-31T10:47:50;4.45;;;3.00;;
13345;SDS011;6742;48.036;15.780;2023-05-31T10:50:23;3.90;;;3.13;;
13345;SDS011;6742;48.036;15.780;2023-05-31T10:52:50;4.45;;;2.70;;
13345;SDS011;6742;48.036;15.780;2023-05-31T10:55:18;5.53;;;2.90;;
13345;SDS011;6742;48.036;15.780;2023-05-31T10:57:52;4.28;;;2.70;;
13345;SDS011;6742;48.036;15.780;2023-05-31T11:00:21;3.38;;;2.80;;
13345;SDS011;6742;48.036;15.780;2023-05-31T11:02:50;4.43;;;3.00;;
13345;SDS011;6742;48.036;15.780;2023-05-31T11:05:20;6.68;;;2.90;;
13345;SDS011;6742;48.036;15.780;2023-05-31T11:07:48;4.35;;;3.15;;
13345;SDS011;6742;48.036;15.780;2023-05-31T11:10:25;6.30;;;2.85;;
13345;SDS011;6742;48.036;15.780;2023-05-31T11:13:01;5.20;;;3.15;;
13345;SDS011;6742;48.036;15.780;2023-05-31T11:15:38;3.53;;;2.75;;
13345;SDS011;6742;48.036;15.780;2023-05-31T11:18:07;4.60;;;3.13;;
13345;SDS011;6742;48.036;15.780;2023-05-31T11:20:35;4.15;;;3.00;;
13345;SDS011;6742;48.036;15.780;2023-05-31T11:26:06;4.05;;;3.05;;
13345;SDS011;6742;48.036;15.780;2023-05-31T11:28:51;4.18;;;2.90;;
13345;SDS011;6742;48.036;15.780;2023-05-31T11:34:22;4.82;;;2.97;;
13345;SDS011;6742;48.036;15.780;2023-05-31T11:36:50;3.55;;;3.00;;
13345;SDS011;6742;48.036;15.780;2023-05-31T11:39:17;7.43;;;3.30;;
13345;SDS011;6742;48.036;15.780;2023-05-31T11:41:44;4.50;;;2.92;;
13345;SDS011;6742;48.036;15.780;2023-05-31T11:44:13;4.90;;;3.30;;
13345;SDS011;6742;48.036;15.780;2023-05-31T11:46:46;4.60;;;3.00;;
13345;SDS011;6742;48.036;15.780;2023-05-31T11:49:15;4.38;;;3.13;;
13345;SDS011;6742;48.036;15.780;2023-05-31T11:51:42;4.35;;;3.10;;
13345;SDS011;6742;48.036;15.780;2023-05-31T11:54:09;6.28;;;3.47;;
13345;SDS011;6742;48.036;15.780;2023-05-31T11:56:39;6.63;;;3.28;;
13345;SDS011;6742;48.036;15.780;2023-05-31T11:59:07;8.45;;;3.20;;
13345;SDS011;6742;48.036;15.780;2023-05-31T12:01:37;4.72;;;2.90;;
13345;SDS011;6742;48.036;15.780;2023-05-31T12:04:05;3.97;;;3.03;;
13345;SDS011;6742;48.036;15.780;2023-05-31T12:06:32;4.55;;;2.97;;
13345;SDS011;6742;48.036;15.780;2023-05-31T12:09:00;3.70;;;3.10;;
13345;SDS011;6742;48.036;15.780;2023-05-31T12:11:28;3.83;;;3.10;;
13345;SDS011;6742;48.036;15.780;2023-05-31T12:13:55;5.38;;;3.28;;
13345;SDS011;6742;48.036;15.780;2023-05-31T12:16:22;3.92;;;3.03;;
13345;SDS011;6742;48.036;15.780;2023-05-31T12:18:50;4.53;;;3.40;;
13345;SDS011;6742;48.036;15.780;2023-05-31T12:21:17;4.10;;;3.08;;
13345;SDS011;6742;48.036;15.780;2023-05-31T12:23:51;6.68;;;3.15;;
13345;SDS011;6742;48.036;15.780;2023-05-31T12:26:18;5.05;;;3.35;;
13345;SDS011;6742;48.036;15.780;2023-05-31T12:28:46;6.35;;;2.75;;
13345;SDS011;6742;48.036;15.780;2023-05-31T12:31:18;5.20;;;3.10;;
13345;SDS011;6742;48.036;15.780;2023-05-31T12:33:52;4.10;;;3.10;;
13345;SDS011;6742;48.036;15.780;2023-05-31T12:36:24;4.55;;;3.10;;
13345;SDS011;6742;48.036;15.780;2023-05-31T12:38:55;4.07;;;3.35;;
13345;SDS011;6742;48.036;15.780;2023-05-31T12:41:22;5.18;;;2.88;;
13345;SDS011;6742;48.036;15.780;2023-05-31T12:43:50;5.10;;;3.40;;
13345;SDS011;6742;48.036;15.780;2023-05-31T12:46:19;5.72;;;3.33;;
13345;SDS011;6742;48.036;15.780;2023-05-31T12:48:46;8.10;;;3.50;;
13345;SDS011;6742;48.036;15.780;2023-05-31T12:51:14;5.07;;;3.30;;
13345;SDS011;6742;48.036;15.780;2023-05-31T12:53:47;5.65;;;3.35;;
13345;SDS011;6742;48.036;15.780;2023-05-31T12:56:14;6.63;;;3.35;;
13345;SDS011;6742;48.036;15.780;2023-05-31T12:58:41;5.20;;;3.13;;
13345;SDS011;6742;48.036;15.780;2023-05-31T13:01:08;4.72;;;3.25;;
13345;SDS011;6742;48.036;15.780;2023-05-31T13:03:35;5.32;;;2.85;;
13345;SDS011;6742;48.036;15.780;2023-05-31T13:06:02;5.28;;;3.40;;
13345;SDS011;6742;48.036;15.780;2023-05-31T13:08:33;7.80;;;3.25;;
13345;SDS011;6742;48.036;15.780;2023-05-31T13:10:59;4.80;;;3.35;;
13345;SDS011;6742;48.036;15.780;2023-05-31T13:13:26;5.90;;;3.58;;
13345;SDS011;6742;48.036;15.780;2023-05-31T13:15:53;5.13;;;3.35;;
13345;SDS011;6742;48.036;15.780;2023-05-31T13:18:21;4.05;;;3.05;;
13345;SDS011;6742;48.036;15.780;2023-05-31T13:20:47;4.50;;;3.20;;
13345;SDS011;6742;48.036;15.780;2023-05-31T13:23:14;5.25;;;3.08;;
13345;SDS011;6742;48.036;15.780;2023-05-31T13:25:43;5.07;;;3.22;;
13345;SDS011;6742;48.036;15.780;2023-05-31T13:28:10;4.63;;;3.60;;
13345;SDS011;6742;48.036;15.780;2023-05-31T13:30:36;6.47;;;3.53;;
13345;SDS011;6742;48.036;15.780;2023-05-31T13:33:04;5.82;;;3.55;;
13345;SDS011;6742;48.036;15.780;2023-05-31T13:35:31;4.28;;;3.30;;
13345;SDS011;6742;48.036;15.780;2023-05-31T13:37:58;6.97;;;3.63;;
13345;SDS011;6742;48.036;15.780;2023-05-31T13:40:25;5.28;;;3.40;;
13345;SDS011;6742;48.036;15.780;2023-05-31T13:42:53;6.50;;;3.42;;
13345;SDS011;6742;48.036;15.780;2023-05-31T13:45:20;4.93;;;3.47;;
13345;SDS011;6742;48.036;15.780;2023-05-31T13:47:47;5.18;;;3.55;;
13345;SDS011;6742;48.036;15.780;2023-05-31T13:50:15;4.10;;;3.38;;
13345;SDS011;6742;48.036;15.780;2023-05-31T13:52:41;5.57;;;3.20;;
13345;SDS011;6742;48.036;15.780;2023-05-31T13:55:08;4.72;;;3.50;;
13345;SDS011;6742;48.036;15.780;2023-05-31T13:57:35;6.13;;;3.78;;
13345;SDS011;6742;48.036;15.780;2023-05-31T14:00:04;4.85;;;3.42;;
13345;SDS011;6742;48.036;15.780;2023-05-31T14:02:32;4.95;;;3.17;;
13345;SDS011;6742;48.036;15.780;2023-05-31T14:05:00;6.22;;;3.83;;
13345;SDS011;6742;48.036;15.780;2023-05-31T14:07:28;6.32;;;3.20;;
13345;SDS011;6742;48.036;15.780;2023-05-31T14:09:55;6.07;;;3.83;;
13345;SDS011;6742;48.036;15.780;2023-05-31T14:12:22;5.75;;;3.45;;
13345;SDS011;6742;48.036;15.780;2023-05-31T14:14:49;6.63;;;3.78;;
13345;SDS011;6742;48.036;15.780;2023-05-31T14:17:18;6.10;;;3.78;;
13345;SDS011;6742;48.036;15.780;2023-05-31T14:19:45;6.88;;;3.55;;
13345;SDS011;6742;48.036;15.780;2023-05-31T14:22:12;6.93;;;3.45;;
13345;SDS011;6742;48.036;15.780;2023-05-31T14:24:39;6.18;;;3.40;;
13345;SDS011;6742;48.036;15.780;2023-05-31T14:27:06;6.60;;;3.50;;
13345;SDS011;6742;48.036;15.780;2023-05-31T14:29:33;4.30;;;3.53;;
13345;SDS011;6742;48.036;15.780;2023-05-31T14:32:00;4.25;;;3.40;;
13345;SDS011;6742;48.036;15.780;2023-05-31T14:34:28;3.83;;;3.33;;
13345;SDS011;6742;48.036;15.780;2023-05-31T14:36:55;6.63;;;3.63;;
13345;SDS011;6742;48.036;15.780;2023-05-31T14:39:22;4.90;;;3.70;;
13345;SDS011;6742;48.036;15.780;2023-05-31T14:41:49;4.93;;;3.45;;
13345;SDS011;6742;48.036;15.780;2023-05-31T14:44:16;5.68;;;3.60;;
13345;SDS011;6742;48.036;15.780;2023-05-31T14:46:43;6.10;;;3.65;;
13345;SDS011;6742;48.036;15.780;2023-05-31T14:49:10;7.63;;;3.55;;
13345;SDS011;6742;48.036;15.780;2023-05-31T14:51:39;4.22;;;3.80;;
13345;SDS011;6742;48.036;15.780;2023-05-31T14:54:06;6.28;;;3.67;;
13345;SDS011;6742;48.036;15.780;2023-05-31T14:56:33;4.35;;;3.55;;
13345;SDS011;6742;48.036;15.780;2023-05-31T14:59:00;5.20;;;3.60;;
13345;SDS011;6742;48.036;15.780;2023-05-31T15:01:27;6.15;;;3.53;;